Flight Track Log - Related Links

Times and Time Zones

All times are in EDT time to prevent confusion due to time zone crossing. See the AAL2345 flight status page for this flight to view local times or setup timezone preferences in your user account.


Time Position Orientation Groundspeed Altitude Reporting Facility
EDT Latitude Longitude Course Direction KTS MPH feet Rate Location/Type
Fri 07:04:57 PM 41.9333 -87.9167 254° West 169 194 2,200  Level Chicago TRACON
Fri 07:05:57 PM 41.9167 -87.9833 251° West 213 245 3,900 1,333 Climbing Chicago TRACON
Fri 07:07:00 PM 41.8918 -88.2746 255° West  Level FlightAware Approximate
Fri 07:08:00 PM 41.8524 -88.3941 242° Southwest  Level FlightAware Approximate
Fri 07:08:24 PM 41.9233 -88.1928 273° West 269 310 6,800  Level Chicago Center
Fri 07:09:00 PM 41.8252 -88.5201 254° West  Level FlightAware Approximate
Fri 07:09:26 PM 41.9567 -88.2850 296° West 276 318 10,000  Level Chicago Center
Fri 07:10:00 PM 41.7974 -88.6460 254° West  Level FlightAware Approximate
Fri 07:10:28 PM 41.9931 -88.4031 293° West 284 327 12,200  Level Chicago Center
Fri 07:11:30 PM 41.9917 -88.5161 269° West 303 349 13,200 1,161 Climbing Chicago Center
Fri 07:12:32 PM 41.9328 -88.6114 230° Southwest 334 384 14,600 1,694 Climbing Chicago Center
Fri 07:13:34 PM 41.8639 -88.7119 227° Southwest 366 421 16,700 1,935 Climbing Chicago Center
Fri 07:14:36 PM 41.8092 -88.8306 238° Southwest 376 433 18,600 2,032 Climbing Chicago Center
Fri 07:15:38 PM 41.7494 -88.9758 241° Southwest 376 433 20,900 1,984 Climbing Chicago Center
Fri 07:16:40 PM 41.6967 -89.1003 240° Southwest 385 443 22,700 1,548 Climbing Chicago Center
Fri 07:17:42 PM 41.6431 -89.2283 241° Southwest 395 455 24,100 1,548 Climbing Chicago Center
Fri 07:18:44 PM 41.5883 -89.3572 240° Southwest 402 463 25,900 1,645 Climbing Chicago Center
Fri 07:19:46 PM 41.5306 -89.4944 241° Southwest 399 459 27,500 1,742 Climbing Chicago Center
Fri 07:20:48 PM 41.4764 -89.6211 240° Southwest 396 456 29,500 1,790 Climbing Chicago Center
Fri 07:21:50 PM 41.4244 -89.7397 240° Southwest 377 434 31,200 1,161 Climbing Chicago Center
Fri 07:22:52 PM 41.3756 -89.8542 240° Southwest 360 414 31,900 387 Climbing Chicago Center
Fri 07:23:54 PM 41.3167 -89.9897 240° Southwest 354 407 32,000 48 Climbing Chicago Center
Fri 07:24:56 PM 41.2681 -90.1036 240° Southwest 357 411 32,000  Level Chicago Center
Fri 07:25:58 PM 41.2178 -90.2186 240° Southwest 361 415 32,000  Level Chicago Center
Fri 07:27:00 PM 41.1644 -90.3389 240° Southwest 378 435 32,000  Level Chicago Center
Fri 07:28:02 PM 41.1144 -90.4533 240° Southwest 366 421 32,000  Level Chicago Center
Fri 07:29:04 PM 41.0519 -90.5939 240° Southwest 369 425 32,000  Level Chicago Center
Fri 07:30:06 PM 40.9997 -90.7106 239° Southwest 368 423 32,000  Level Chicago Center
Fri 07:31:08 PM 40.9481 -90.8256 239° Southwest 367 422 32,000  Level Chicago Center
Fri 07:32:10 PM 40.8964 -90.9417 240° Southwest 367 422 32,000  Level Chicago Center
Fri 07:33:11 PM 40.8450 -91.0581 240° Southwest 369 425 32,000  Level Chicago Center
Fri 07:34:13 PM 40.7922 -91.1739 239° Southwest 367 422 32,000  Level Chicago Center
Fri 07:35:15 PM 40.7286 -91.3156 239° Southwest 373 429 32,000  Level Chicago Center
Fri 07:36:17 PM 40.6814 -91.4164 238° Southwest 374 430 32,000  Level Chicago Center
Fri 07:37:19 PM 40.6183 -91.5569 239° Southwest 373 429 32,000  Level Chicago Center
Fri 07:38:10 PM 40.5753 -91.6506 239° Southwest 375 432 32,000  Level Kansas City Center
Fri 07:39:12 PM 40.5214 -91.7661 238° Southwest 374 430 32,000  Level Kansas City Center
Fri 07:40:12 PM 40.4683 -91.8831 239° Southwest 375 432 32,000  Level Kansas City Center
Fri 07:41:16 PM 40.4133 -92.0006 238° Southwest 378 435 32,000  Level Kansas City Center
Fri 07:42:16 PM 40.3592 -92.1178 239° Southwest 379 436 32,000  Level Kansas City Center
Fri 07:43:19 PM 40.3042 -92.2356 239° Southwest 379 436 32,000  Level Kansas City Center
Fri 07:44:20 PM 40.2378 -92.3769 238° Southwest 378 435 32,000  Level Kansas City Center
Fri 07:45:22 PM 40.1842 -92.4858 237° Southwest 374 430 32,000  Level Kansas City Center
Fri 07:46:23 PM 40.1311 -92.5958 238° Southwest 372 428 32,000  Level Kansas City Center
Fri 07:47:24 PM 40.0400 -92.6925 219° Southwest 379 436 32,000  Level Kansas City Center
Fri 07:48:25 PM 39.9556 -92.7789 218° Southwest 386 444 32,000  Level Kansas City Center
Fri 07:49:29 PM 39.8722 -92.8656 219° Southwest 384 442 32,000  Level Kansas City Center
Fri 07:50:30 PM 39.7908 -92.9517 219° Southwest 381 438 32,000  Level Kansas City Center
Fri 07:51:31 PM 39.7053 -93.0372 218° Southwest 386 444 32,000  Level Kansas City Center
Fri 07:52:31 PM 39.6072 -93.1433 220° Southwest 385 443 32,000  Level Kansas City Center
Fri 07:53:35 PM 39.5228 -93.2289 218° Southwest 386 444 32,000  Level Kansas City Center
Fri 07:54:35 PM 39.4381 -93.3156 218° Southwest 389 448 32,000  Level Kansas City Center
Fri 07:55:39 PM 39.3531 -93.4042 219° Southwest 393 452 32,000  Level Kansas City Center
Fri 07:56:40 PM 39.2558 -93.5047 219° Southwest 396 456 32,000  Level Kansas City Center
Fri 07:57:40 PM 39.1736 -93.5894 219° Southwest 395 455 32,000  Level Kansas City Center
Fri 07:58:44 PM 39.0778 -93.6869 218° Southwest 393 452 32,000  Level Kansas City Center
Fri 07:59:45 PM 38.9956 -93.7700 218° Southwest 393 452 32,000  Level Kansas City Center
Fri 08:00:46 PM 38.9158 -93.8517 219° Southwest 384 442 32,000 639 Level Kansas City Center
Fri 08:01:47 PM 38.8219 -93.9469 218° Southwest 384 442 33,300 984 Climbing Kansas City Center
Fri 08:02:48 PM 38.7425 -94.0264 218° Southwest 380 437 34,000 336 Climbing Kansas City Center
Fri 08:03:52 PM 38.6508 -94.1167 218° Southwest 373 429 34,000  Level Kansas City Center
Fri 08:04:52 PM 38.5628 -94.1781 209° Southwest 376 433 34,000  Level Kansas City Center
Fri 08:05:54 PM 38.4742 -94.2408 209° Southwest 377 434 34,000  Level Kansas City Center
Fri 08:06:54 PM 38.3708 -94.3133 209° Southwest 377 434 34,000  Level Kansas City Center
Fri 08:07:57 PM 38.2842 -94.3747 209° Southwest 375 432 34,000  Level Kansas City Center
Fri 08:08:58 PM 38.1825 -94.4450 209° Southwest 372 428 34,000  Level Kansas City Center
Fri 08:10:02 PM 38.0931 -94.5075 209° Southwest 377 434 34,000  Level Kansas City Center
Fri 08:11:02 PM 38.0039 -94.5686 208° Southwest 379 436 34,000  Level Kansas City Center
Fri 08:12:03 PM 37.9008 -94.6381 208° Southwest 375 432 34,000  Level Kansas City Center
Fri 08:13:04 PM 37.8117 -94.7014 209° Southwest 380 437 34,000  Level Kansas City Center
Fri 08:14:08 PM 37.7086 -94.7706 208° Southwest 376 433 34,000  Level Kansas City Center
Fri 08:15:09 PM 37.6194 -94.8331 209° Southwest 379 436 34,000  Level Kansas City Center
Fri 08:16:10 PM 37.5256 -94.8950 208° Southwest 381 438 34,000  Level Kansas City Center
Fri 08:17:10 PM 37.4306 -94.9583 208° Southwest 384 442 34,000  Level Kansas City Center
Fri 08:18:12 PM 37.3367 -95.0242 209° Southwest 385 443 34,000  Level Kansas City Center
Fri 08:19:15 PM 37.2419 -95.0889 209° Southwest 385 443 34,000  Level Kansas City Center
Fri 08:20:16 PM 37.1292 -95.1644 208° Southwest 383 441 34,000  Level Kansas City Center
Fri 08:21:19 PM 37.0344 -95.2278 208° Southwest 384 442 34,000  Level Kansas City Center
Fri 08:22:20 PM 36.9400 -95.2917 208° Southwest 385 443 34,000  Level Kansas City Center
Fri 08:23:21 PM 36.8461 -95.3558 209° Southwest 384 442 34,000  Level Kansas City Center
Fri 08:24:22 PM 36.7519 -95.4192 208° Southwest 385 443 34,000  Level Kansas City Center
Fri 08:25:26 PM 36.6589 -95.4817 208° Southwest 383 441 34,000  Level Kansas City Center
Fri 08:26:27 PM 36.5628 -95.5464 208° Southwest 382 440 34,000  Level Kansas City Center
Fri 08:27:28 PM 36.4647 -95.6006 204° Southwest 389 448 34,000  Level Kansas City Center
Fri 08:28:29 PM 36.3494 -95.5908 176° South 417 480 34,000  Level Kansas City Center
Fri 08:29:29 PM 36.2092 -95.5631 171° South 425 489 34,000  Level Kansas City Center
Fri 08:30:31 PM 36.0911 -95.5414 172° South 426 490 34,000  Level Kansas City Center
Fri 08:31:35 PM 35.9861 -95.5219 171° South 426 490 34,000  Level Kansas City Center
Fri 08:32:35 PM 35.8700 -95.4994 171° South 424 488 34,000 -446 Level Kansas City Center
Fri 08:33:36 PM 35.7308 -95.4739 172° South 421 484 33,100 -488 Descending Kansas City Center
Fri 08:34:38 PM 35.6128 -95.4519 171° South 424 488 33,000 -77 Descending Kansas City Center
Fri 08:34:54 PM 35.5892 -95.4533 183° South 426 490 33,000  Level Fort Worth Center
Fri 08:35:54 PM 35.4719 -95.4306 171° South 426 490 33,000  Level Fort Worth Center
Fri 08:36:55 PM 35.3547 -95.4078 171° South 426 490 33,000  Level Fort Worth Center
Fri 08:37:55 PM 35.2356 -95.3853 171° South 426 490 33,000  Level Fort Worth Center
Fri 08:38:54 PM 35.1164 -95.3653 172° South 426 490 33,000  Level Fort Worth Center
Fri 08:39:54 PM 34.9992 -95.3453 172° South 426 490 33,000  Level Fort Worth Center
Fri 08:40:55 PM 34.8800 -95.3228 171° South 426 490 33,000  Level Fort Worth Center
Fri 08:41:54 PM 34.7608 -95.3056 173° South 426 490 33,000  Level Fort Worth Center
Fri 08:42:55 PM 34.6414 -95.2833 171° South 426 490 33,000 -400 Level Fort Worth Center
Fri 08:43:54 PM 34.5139 -95.2614 172° South 431 496 32,200 -1,000 Descending Fort Worth Center
Fri 08:44:55 PM 34.4147 -95.3242 208° Southwest 387 445 31,000 -1,240 Descending Fort Worth Center
Fri 08:45:55 PM 34.3328 -95.4117 221° Southwest 379 436 29,700 -1,200 Descending Fort Worth Center
Fri 08:46:55 PM 34.2525 -95.4939 220° Southwest 387 445 28,600 -1,100 Descending Fort Worth Center
Fri 08:47:55 PM 34.1744 -95.5758 221° Southwest 387 445 27,500 -1,250 Descending Fort Worth Center
Fri 08:48:55 PM 34.0964 -95.6553 220° Southwest 375 432 26,100 -1,250 Descending Fort Worth Center
Fri 08:49:55 PM 34.0244 -95.7344 222° Southwest 361 415 25,000 -1,500 Descending Fort Worth Center
Fri 08:50:55 PM 33.9483 -95.8161 222° Southwest 361 415 23,100 -1,850 Descending Fort Worth Center
Fri 08:51:55 PM 33.8803 -95.8847 220° Southwest 354 407 21,300 -2,000 Descending Fort Worth Center
Fri 08:52:55 PM 33.8081 -95.9586 220° Southwest 349 402 19,100 -2,400 Descending Fort Worth Center
Fri 08:53:55 PM 33.7317 -96.0347 220° Southwest 337 388 16,500 -2,350 Descending Fort Worth Center
Fri 08:54:55 PM 33.6719 -96.0981 221° Southwest 330 380 14,400 -2,000 Descending Fort Worth Center
Fri 08:55:55 PM 33.5997 -96.1714 220° Southwest 330 380 12,500 -1,462 Descending Fort Worth Center
Fri 08:56:54 PM 33.5417 -96.2322 221° Southwest 319 367 11,500 -750 Descending Fort Worth Center
Fri 08:57:55 PM 33.4736 -96.3103 224° Southwest 313 360 11,000 -248 Descending Fort Worth Center
Fri 08:58:55 PM 33.4239 -96.3706 225° Southwest 294 338 11,000 -550 Level Fort Worth Center
Fri 08:59:55 PM 33.3661 -96.4408 225° Southwest 278 320 9,900 -1,150 Descending Fort Worth Center
Fri 09:00:55 PM 33.3206 -96.4961 225° Southwest 273 314 8,700 -1,100 Descending Fort Worth Center
Fri 09:01:55 PM 33.2708 -96.5539 224° Southwest 252 290 7,700 -1,050 Descending Fort Worth Center
Fri 09:02:55 PM 33.2692 -96.6158 268° West 193 222 6,600 -1,200 Descending Fort Worth Center
Fri 09:03:55 PM 33.2906 -96.6753 293° West 204 235 5,300 -800 Descending Fort Worth Center
Fri 09:04:55 PM 33.2950 -96.7525 274° West 209 241 5,000 -101 Descending Fort Worth Center
Fri 09:05:54 PM 33.2869 -96.8094 260° West 203 234 5,100  Climbing Fort Worth Center
Fri 09:06:55 PM 33.2561 -96.8769 241° Southwest 203 234 5,000 -50 Descending Fort Worth Center
Fri 09:07:54 PM 33.2333 -96.9292 242° Southwest 208 239 5,000  Level Fort Worth Center
Fri 09:08:54 PM 33.2000 -96.9864 235° Southwest 203 234 5,000  Level Fort Worth Center
Fri 09:09:55 PM 33.1625 -97.0064 204° Southwest 176 203 5,000 -99 Level Fort Worth Center
Fri 09:10:55 PM 33.1167 -97.0117 186° South 155 178 4,800 -589 Descending Fort Worth Center
Fri 09:11:47 PM 33.0833 -97.0167 187° South 153 176 3,900 -850 Descending Dallas / Fort Worth TRACON
Fri 09:12:48 PM 33.0333 -97.0167 180° South 147 169 3,200 -738 Descending Dallas / Fort Worth TRACON
Fri 09:13:49 PM 33.0000 -97.0167 180° South 150 173 2,400 -787 Descending Dallas / Fort Worth TRACON

Login

Don't have an account? Register now (free) for customized features, flight alerts, and more!